Time;durP1;ratioP1;P1;durP2;ratioP2;P2;SDS_P1;SDS_P2;PMS_P1;PMS_P2;Temp;Humidity;BMP_temperature;BMP_pressure;BME280_temperature;BME280_humidity;BME280_pressure;Samples;Min_cycle;Max_cycle;Signal;HPM_P1;HPM_P2
2021/09/26 00:00:32;;;;;;;4.40;4.00;;;22.00;99.90;;;;;;5009268;28;20451;-76
2021/09/26 00:03:00;;;;;;;3.90;3.60;;;21.90;99.90;;;;;;5005419;28;20499;-76
2021/09/26 00:05:28;;;;;;;6.03;5.43;;;22.00;99.90;;;;;;5009541;28;20473;-77
2021/09/26 00:07:56;;;;;;;4.67;3.53;;;22.00;99.90;;;;;;5008692;28;20489;-76
2021/09/26 00:10:25;;;;;;;5.07;4.53;;;22.00;99.90;;;;;;5007746;28;20635;-77
2021/09/26 00:12:54;;;;;;;8.00;4.50;;;22.00;99.90;;;;;;5010960;28;20472;-76
2021/09/26 00:15:23;;;;;;;4.53;4.13;;;21.90;99.90;;;;;;5009348;28;20512;-78
2021/09/26 00:17:52;;;;;;;4.40;4.10;;;21.90;99.90;;;;;;5009587;28;20521;-76
2021/09/26 00:20:21;;;;;;;4.57;4.03;;;22.00;99.90;;;;;;5011164;28;20522;-76
2021/09/26 00:22:49;;;;;;;4.30;3.90;;;22.00;99.90;;;;;;5009195;28;20576;-77
2021/09/26 00:25:18;;;;;;;4.90;4.50;;;21.80;99.90;;;;;;5011522;28;20975;-77
2021/09/26 00:27:47;;;;;;;4.63;4.20;;;21.80;99.90;;;;;;5008087;28;20493;-76
2021/09/26 00:30:17;;;;;;;4.67;4.20;;;21.90;99.90;;;;;;5016170;28;20506;-77
2021/09/26 00:32:46;;;;;;;4.47;4.07;;;22.00;99.90;;;;;;5014321;28;20480;-76
2021/09/26 00:35:17;;;;;;;4.27;3.87;;;22.00;99.90;;;;;;5013432;28;20450;-77
2021/09/26 00:37:45;;;;;;;4.47;3.40;;;21.90;99.90;;;;;;5013892;28;20457;-79
2021/09/26 00:40:14;;;;;;;4.20;3.80;;;21.90;99.90;;;;;;5013119;28;20463;-79
2021/09/26 00:42:42;;;;;;;4.60;4.20;;;22.00;99.90;;;;;;5011676;28;20476;-78
2021/09/26 00:45:11;;;;;;;3.73;3.43;;;22.10;99.90;;;;;;5012816;28;20893;-75
2021/09/26 00:47:40;;;;;;;4.67;3.20;;;22.10;99.90;;;;;;5012643;28;20474;-77
2021/09/26 00:50:11;;;;;;;5.47;4.00;;;22.10;99.90;;;;;;5012625;28;20452;-76
2021/09/26 00:52:40;;;;;;;4.47;4.07;;;22.10;99.90;;;;;;5012834;28;20473;-77
2021/09/26 00:55:09;;;;;;;7.10;3.30;;;22.00;99.90;;;;;;5020634;28;20523;-76
2021/09/26 00:57:40;;;;;;;3.50;3.20;;;21.90;99.90;;;;;;5013943;28;20457;-76
2021/09/26 01:00:10;;;;;;;4.90;4.00;;;21.90;99.90;;;;;;5009155;28;20449;-76
2021/09/26 01:02:40;;;;;;;5.20;4.00;;;21.80;99.90;;;;;;5011104;28;20479;-77
2021/09/26 01:05:11;;;;;;;3.50;3.20;;;21.70;99.90;;;;;;5012813;28;20564;-76
2021/09/26 01:07:50;;;;;;;5.90;3.30;;;21.60;1.00;;;;;;5014368;28;21169;-76
2021/09/26 01:10:26;;;;;;;3.63;3.33;;;21.60;1.00;;;;;;5008618;28;21259;-78
2021/09/26 01:13:01;;;;;;;3.80;3.37;;;21.60;1.00;;;;;;5010098;28;20473;-78
2021/09/26 01:15:50;;;;;;;7.97;6.53;;;21.50;1.00;;;;;;5012091;28;20478;-78
2021/09/26 01:18:25;;;;;;;4.03;3.40;;;21.40;1.00;;;;;;5015910;28;20532;-78
2021/09/26 01:21:00;;;;;;;4.00;3.63;;;21.40;1.00;;;;;;5012044;28;20464;-77
2021/09/26 01:23:51;;;;;;;5.23;4.83;;;21.40;1.00;;;;;;5023874;28;20498;-78
2021/09/26 01:26:45;;;;;;;4.97;4.50;;;21.50;1.00;;;;;;5013688;28;20468;-76
2021/09/26 01:29:34;;;;;;;5.10;4.60;;;21.50;1.00;;;;;;5008206;28;21211;-75
2021/09/26 01:32:08;;;;;;;4.33;3.30;;;21.30;1.00;;;;;;5027560;28;20483;-77
2021/09/26 01:34:40;;;;;;;5.63;4.57;;;21.30;1.00;;;;;;5012187;28;20444;-77
2021/09/26 01:37:14;;;;;;;3.87;3.57;;;21.30;1.00;;;;;;5014173;28;20797;-76
2021/09/26 01:39:47;;;;;;;4.40;3.27;;;21.30;1.00;;;;;;5009095;28;20458;-77
2021/09/26 01:42:20;;;;;;;4.47;4.07;;;21.40;1.00;;;;;;5013593;28;20836;-76
2021/09/26 01:44:53;;;;;;;8.00;5.00;;;21.40;1.00;;;;;;5009881;28;20531;-76
2021/09/26 01:47:29;;;;;;;9.60;8.00;;;21.10;1.00;;;;;;5012450;28;20505;-76
2021/09/26 01:50:01;;;;;;;6.37;5.77;;;21.30;1.00;;;;;;5002404;28;20521;-77
2021/09/26 01:52:32;;;;;;;9.43;6.20;;;21.40;1.00;;;;;;5013904;28;20532;-76
2021/09/26 01:55:01;;;;;;;8.10;7.30;;;21.40;1.00;;;;;;5003591;28;20948;-76
2021/09/26 01:57:30;;;;;;;7.33;6.63;;;21.60;1.00;;;;;;5013765;28;20501;-77
2021/09/26 02:00:01;;;;;;;8.87;6.37;;;21.70;1.00;;;;;;5011655;28;20506;-76
2021/09/26 02:02:31;;;;;;;5.33;4.57;;;21.50;1.00;;;;;;5012514;28;20477;-76
2021/09/26 02:05:02;;;;;;;3.83;3.20;;;21.50;1.00;;;;;;5012471;28;20485;-76
2021/09/26 02:07:32;;;;;;;4.67;4.27;;;21.40;1.00;;;;;;5012553;28;20455;-74
2021/09/26 02:10:01;;;;;;;4.13;3.73;;;21.40;1.00;;;;;;5011678;28;20479;-76
2021/09/26 02:12:31;;;;;;;5.10;4.47;;;21.60;1.00;;;;;;5011382;28;20561;-78
2021/09/26 02:15:02;;;;;;;5.50;4.67;;;21.60;1.00;;;;;;5001916;28;21236;-77
2021/09/26 02:17:31;;;;;;;3.87;3.47;;;21.60;1.00;;;;;;5012366;28;20449;-77
2021/09/26 02:20:02;;;;;;;8.57;5.23;;;21.50;1.00;;;;;;5007778;28;20485;-76
2021/09/26 02:22:32;;;;;;;8.40;5.87;;;21.50;1.00;;;;;;5004700;28;20481;-76
2021/09/26 02:25:02;;;;;;;6.27;4.20;;;21.70;1.00;;;;;;5012865;28;20492;-78
2021/09/26 02:27:31;;;;;;;4.90;4.47;;;21.80;1.00;;;;;;5000652;28;20454;-77
2021/09/26 02:29:59;;;;;;;6.63;5.03;;;21.80;1.00;;;;;;5011623;28;21216;-77
2021/09/26 02:32:28;;;;;;;7.73;5.00;;;21.70;1.00;;;;;;5012118;28;20486;-76
2021/09/26 02:34:57;;;;;;;6.20;4.53;;;21.40;1.00;;;;;;5012943;28;21139;-76
2021/09/26 02:37:27;;;;;;;4.80;3.70;;;21.20;17.20;;;;;;5021557;28;20456;-77
2021/09/26 02:39:56;;;;;;;6.97;6.00;;;21.30;14.90;;;;;;5007731;28;21011;-77
2021/09/26 02:42:32;;;;;;;5.50;4.87;;;21.40;1.00;;;;;;5004101;28;20479;-77
2021/09/26 02:45:05;;;;;;;4.20;3.90;;;21.40;1.00;;;;;;5011082;28;20484;-76
2021/09/26 02:47:38;;;;;;;6.37;4.70;;;21.40;1.00;;;;;;5009633;28;20984;-76
2021/09/26 02:50:09;;;;;;;6.50;5.47;;;21.40;1.00;;;;;;5011533;28;20440;-76
2021/09/26 02:52:37;;;;;;;4.33;3.93;;;21.40;1.00;;;;;;5019618;28;20483;-79
2021/09/26 02:55:07;;;;;;;3.60;3.30;;;21.60;1.00;;;;;;5011113;28;20461;-76
2021/09/26 02:57:36;;;;;;;4.53;3.70;;;21.70;1.00;;;;;;5010574;28;20460;-77
2021/09/26 03:00:05;;;;;;;4.00;3.60;;;21.70;1.00;;;;;;5009921;28;20441;-77
2021/09/26 03:02:35;;;;;;;4.03;3.63;;;21.60;1.00;;;;;;5007692;28;20475;-76
2021/09/26 03:05:04;;;;;;;4.90;3.90;;;21.70;1.00;;;;;;5002773;28;20465;-78
2021/09/26 03:07:35;;;;;;;5.57;5.03;;;21.80;1.00;;;;;;5011204;28;20449;-77
2021/09/26 03:10:05;;;;;;;4.27;3.87;;;21.60;1.00;;;;;;5011624;28;20463;-79
2021/09/26 03:12:34;;;;;;;10.80;4.50;;;21.40;1.00;;;;;;5008687;28;20992;-77
2021/09/26 03:15:03;;;;;;;4.10;3.60;;;21.10;99.90;;;;;;5005976;28;20985;-76
2021/09/26 03:17:32;;;;;;;3.67;3.47;;;21.10;99.90;;;;;;5011468;28;20449;-76
2021/09/26 03:20:00;;;;;;;4.93;3.43;;;21.10;99.90;;;;;;5009672;28;20891;-77
2021/09/26 03:22:28;;;;;;;4.63;3.70;;;21.00;99.90;;;;;;5009684;28;20485;-78
2021/09/26 03:24:57;;;;;;;5.97;4.10;;;21.10;99.90;;;;;;5004673;28;20475;-78
2021/09/26 03:27:26;;;;;;;4.27;3.87;;;21.10;99.90;;;;;;5011736;28;21001;-77
2021/09/26 03:29:54;;;;;;;4.00;3.60;;;21.30;99.90;;;;;;5005084;28;20461;-77
2021/09/26 03:32:22;;;;;;;4.20;3.73;;;21.20;99.90;;;;;;5027525;28;20491;-77
2021/09/26 03:34:50;;;;;;;4.60;4.20;;;21.10;99.90;;;;;;5014068;28;20515;-78
2021/09/26 03:37:18;;;;;;;4.30;3.97;;;21.10;99.90;;;;;;5013046;28;20468;-77
2021/09/26 03:39:46;;;;;;;4.80;4.30;;;21.10;99.90;;;;;;4997863;28;20446;-77
2021/09/26 03:42:15;;;;;;;4.30;3.90;;;21.10;99.90;;;;;;5010028;28;20509;-77
2021/09/26 03:44:44;;;;;;;3.40;3.10;;;21.20;99.90;;;;;;5012875;28;20469;-77
2021/09/26 03:47:12;;;;;;;4.50;3.70;;;21.10;99.90;;;;;;5004139;28;20467;-77
2021/09/26 03:49:40;;;;;;;4.50;4.10;;;21.20;99.90;;;;;;5006918;28;20517;-76
2021/09/26 03:52:09;;;;;;;3.93;3.63;;;21.10;99.90;;;;;;5010195;28;20465;-75
2021/09/26 03:54:37;;;;;;;5.50;4.20;;;21.20;99.90;;;;;;5009765;28;20445;-77
2021/09/26 03:57:06;;;;;;;3.57;3.27;;;21.40;65.00;;;;;;5005609;28;20465;-76
2021/09/26 03:59:35;;;;;;;4.13;3.53;;;21.30;2.20;;;;;;5006898;28;20460;-77
2021/09/26 04:02:05;;;;;;;4.30;4.00;;;21.30;1.00;;;;;;5005198;28;20463;-76
2021/09/26 04:04:33;;;;;;;5.00;4.13;;;21.30;1.00;;;;;;5007362;28;20512;-79
2021/09/26 04:07:01;;;;;;;8.43;4.53;;;21.30;1.00;;;;;;5009488;28;20482;-79
2021/09/26 04:09:29;;;;;;;4.97;3.90;;;21.30;1.00;;;;;;5007849;28;20465;-78
2021/09/26 04:11:57;;;;;;;4.10;3.03;;;21.20;1.00;;;;;;5012257;28;20480;-79
2021/09/26 04:14:26;;;;;;;5.23;4.73;;;21.20;1.00;;;;;;5011281;28;20489;-78
2021/09/26 04:16:55;;;;;;;4.67;4.10;;;21.20;1.00;;;;;;5011880;28;20445;-78
2021/09/26 04:19:23;;;;;;;4.93;4.07;;;21.10;1.00;;;;;;5014495;28;21185;-76
2021/09/26 04:21:51;;;;;;;4.53;3.87;;;21.10;1.00;;;;;;5007316;28;20451;-76
2021/09/26 04:24:20;;;;;;;4.80;3.50;;;21.10;1.00;;;;;;5010842;28;20540;-77
2021/09/26 04:26:48;;;;;;;4.73;4.27;;;21.00;1.00;;;;;;5011857;28;20510;-78
2021/09/26 04:29:16;;;;;;;6.40;4.63;;;21.10;1.00;;;;;;5006870;28;20451;-77
2021/09/26 04:31:44;;;;;;;4.63;3.87;;;21.00;1.00;;;;;;5004153;28;20461;-76
2021/09/26 04:34:14;;;;;;;6.57;3.87;;;21.00;1.00;;;;;;5007102;28;20461;-75
2021/09/26 04:36:42;;;;;;;4.70;4.03;;;21.00;1.00;;;;;;5010665;28;20514;-78
2021/09/26 04:39:10;;;;;;;5.10;3.83;;;21.00;1.00;;;;;;5008788;28;20457;-75
2021/09/26 04:41:39;;;;;;;4.30;3.90;;;21.10;1.00;;;;;;5010545;28;20434;-76
2021/09/26 04:44:07;;;;;;;5.83;4.07;;;21.00;1.00;;;;;;5010570;28;20511;-79
2021/09/26 04:46:35;;;;;;;5.90;4.57;;;20.90;1.00;;;;;;5011488;28;20480;-79
2021/09/26 04:49:03;;;;;;;5.00;3.80;;;20.90;1.00;;;;;;5010355;28;20472;-77
2021/09/26 04:51:33;;;;;;;4.03;3.63;;;20.90;1.00;;;;;;5012176;28;20453;-75
2021/09/26 04:54:01;;;;;;;6.17;4.93;;;20.90;6.80;;;;;;5009748;28;20461;-77
2021/09/26 04:56:29;;;;;;;5.50;3.50;;;20.90;1.00;;;;;;5008218;28;20453;-79
2021/09/26 04:58:57;;;;;;;8.90;5.33;;;20.90;9.20;;;;;;5007023;28;20465;-78
2021/09/26 05:01:25;;;;;;;6.50;5.60;;;20.80;99.90;;;;;;5006335;28;20469;-78
2021/09/26 05:03:53;;;;;;;8.37;6.77;;;20.70;1.00;;;;;;5003081;28;20461;-77
2021/09/26 05:06:22;;;;;;;5.77;5.20;;;20.70;1.00;;;;;;5006969;28;20462;-78
2021/09/26 05:08:51;;;;;;;6.33;4.23;;;20.80;1.00;;;;;;5009177;28;20469;-77
2021/09/26 05:11:19;;;;;;;5.13;4.63;;;20.90;99.90;;;;;;5007960;28;20457;-79
2021/09/26 05:13:48;;;;;;;4.20;3.80;;;21.00;99.90;;;;;;5004700;28;20845;-77
2021/09/26 05:16:16;;;;;;;4.40;4.00;;;21.10;99.90;;;;;;5006878;28;20505;-78
2021/09/26 05:18:45;;;;;;;6.70;5.07;;;21.10;99.90;;;;;;5010533;28;20467;-77
2021/09/26 05:21:13;;;;;;;5.70;4.90;;;21.20;99.90;;;;;;5011990;28;20461;-78
2021/09/26 05:23:41;;;;;;;5.13;4.70;;;21.20;99.90;;;;;;5011164;28;20477;-76
2021/09/26 05:26:10;;;;;;;5.07;4.67;;;20.90;99.90;;;;;;5013602;28;21229;-76
2021/09/26 05:28:39;;;;;;;7.23;4.17;;;21.10;99.90;;;;;;5012214;28;20455;-79
2021/09/26 05:31:07;;;;;;;6.00;3.90;;;21.10;99.90;;;;;;5011346;28;20452;-78
2021/09/26 05:33:35;;;;;;;4.83;4.43;;;21.10;99.90;;;;;;5022767;28;20496;-78
2021/09/26 05:36:04;;;;;;;5.43;4.77;;;21.10;99.90;;;;;;5014430;28;20999;-79
2021/09/26 05:38:32;;;;;;;5.73;4.30;;;21.10;99.90;;;;;;5012580;28;20533;-78
2021/09/26 05:41:00;;;;;;;6.00;3.93;;;21.10;99.90;;;;;;5013651;28;20460;-78
2021/09/26 05:43:30;;;;;;;4.40;4.00;;;21.10;99.90;;;;;;5020696;28;20508;-80
2021/09/26 05:45:59;;;;;;;5.57;4.90;;;21.00;99.90;;;;;;5030430;28;20474;-78
2021/09/26 05:48:27;;;;;;;5.50;5.00;;;20.90;93.40;;;;;;5012894;28;21303;-79
2021/09/26 05:50:55;;;;;;;5.40;4.03;;;20.90;99.90;;;;;;5012997;28;20534;-79
2021/09/26 05:53:23;;;;;;;7.40;5.40;;;20.90;99.90;;;;;;5027691;28;20477;-79
2021/09/26 05:55:53;;;;;;;4.57;4.13;;;21.00;63.70;;;;;;5014181;28;20477;-79
2021/09/26 05:58:21;;;;;;;4.63;4.17;;;21.00;2.00;;;;;;5012911;28;20453;-78
2021/09/26 06:00:51;;;;;;;5.00;4.40;;;20.90;1.00;;;;;;5021988;28;20519;-78
2021/09/26 06:03:19;;;;;;;5.57;4.60;;;20.90;25.80;;;;;;5008077;28;20581;-77
2021/09/26 06:05:47;;;;;;;4.67;4.27;;;20.80;63.40;;;;;;5011292;28;20458;-77
2021/09/26 06:08:15;;;;;;;4.87;4.27;;;20.80;99.90;;;;;;5009795;28;20469;-75
2021/09/26 06:10:44;;;;;;;6.40;5.73;;;20.80;99.90;;;;;;5007989;28;20488;-74
2021/09/26 06:13:13;;;;;;;4.87;4.47;;;20.90;99.90;;;;;;5026233;28;20474;-75
2021/09/26 06:15:41;;;;;;;4.50;4.10;;;20.80;1.00;;;;;;5014194;28;20453;-75
2021/09/26 06:18:10;;;;;;;5.40;4.90;;;20.80;1.00;;;;;;5010224;28;20540;-75
2021/09/26 06:20:38;;;;;;;5.67;4.97;;;20.90;1.00;;;;;;5008774;28;20441;-77
2021/09/26 06:23:07;;;;;;;4.63;4.20;;;21.00;99.90;;;;;;5008954;28;20487;-77
2021/09/26 06:25:35;;;;;;;9.47;4.50;;;21.00;1.00;;;;;;5022820;28;20453;-79
2021/09/26 06:28:03;;;;;;;6.77;5.20;;;21.00;1.00;;;;;;5015915;28;20486;-79
2021/09/26 06:30:32;;;;;;;5.87;5.37;;;20.80;1.00;;;;;;5015245;28;20454;-79
2021/09/26 06:33:00;;;;;;;5.67;4.40;;;20.70;25.70;;;;;;5022939;28;20478;-80
2021/09/26 06:35:29;;;;;;;4.67;4.20;;;20.70;40.60;;;;;;5023288;28;20520;-79
2021/09/26 06:37:58;;;;;;;4.70;4.23;;;20.70;55.80;;;;;;5022548;28;20457;-79
2021/09/26 06:40:26;;;;;;;8.70;5.07;;;20.90;1.00;;;;;;5023676;28;20449;-79
2021/09/26 06:42:54;;;;;;;4.37;3.60;;;20.90;1.00;;;;;;5015884;28;20838;-80
2021/09/26 06:45:22;;;;;;;5.23;4.20;;;21.00;1.00;;;;;;5021281;28;20972;-79
2021/09/26 06:47:51;;;;;;;4.93;4.13;;;21.00;1.00;;;;;;5021576;28;20481;-78
2021/09/26 06:50:19;;;;;;;9.40;4.87;;;21.10;1.00;;;;;;5014554;28;20524;-80
2021/09/26 06:52:49;;;;;;;6.00;4.00;;;21.00;1.00;;;;;;5012313;28;20887;-79
2021/09/26 06:55:17;;;;;;;6.00;4.80;;;21.00;1.00;;;;;;5019150;28;20457;-80
2021/09/26 06:57:45;;;;;;;4.87;4.20;;;21.10;1.00;;;;;;5021951;28;20444;-80
2021/09/26 07:00:14;;;;;;;7.40;4.80;;;21.20;1.00;;;;;;5035934;28;20454;-79
2021/09/26 07:02:43;;;;;;;4.93;4.40;;;21.40;99.90;;;;;;5016444;28;20706;-79
2021/09/26 07:05:12;;;;;;;4.27;3.87;;;21.40;99.90;;;;;;5017033;28;20459;-79
2021/09/26 07:07:44;;;;;;;8.50;4.27;;;21.50;99.90;;;;;;5022664;28;20516;-79
2021/09/26 07:10:13;;;;;;;6.57;4.70;;;21.50;99.90;;;;;;5014294;28;20458;-80
2021/09/26 07:12:42;;;;;;;5.73;4.63;;;21.60;99.90;;;;;;5019659;28;20477;-80
2021/09/26 07:15:11;;;;;;;4.90;4.40;;;21.60;99.90;;;;;;5023461;28;20455;-79
2021/09/26 07:17:39;;;;;;;4.70;4.30;;;21.60;99.90;;;;;;5024402;28;20437;-81
2021/09/26 07:20:08;;;;;;;7.10;5.10;;;21.70;99.90;;;;;;5023107;28;20467;-81
2021/09/26 07:22:38;;;;;;;5.63;5.13;;;21.60;99.90;;;;;;5024718;28;20481;-80
2021/09/26 07:25:07;;;;;;;6.07;4.47;;;21.70;99.90;;;;;;5024235;28;20453;-81
2021/09/26 07:27:36;;;;;;;8.43;4.10;;;21.70;99.90;;;;;;5025273;28;20491;-80
2021/09/26 07:30:05;;;;;;;4.73;4.33;;;21.80;99.90;;;;;;5022228;28;20461;-80
2021/09/26 07:32:34;;;;;;;4.50;4.10;;;21.90;99.90;;;;;;5018696;28;20484;-81
2021/09/26 07:35:02;;;;;;;4.80;4.40;;;22.00;99.90;;;;;;5012499;28;20464;-81
2021/09/26 07:37:30;;;;;;;6.33;4.27;;;22.00;87.20;;;;;;5016614;28;20454;-81
2021/09/26 07:39:58;;;;;;;6.60;4.77;;;22.00;68.10;;;;;;5020773;28;20910;-81
2021/09/26 07:42:26;;;;;;;5.50;4.50;;;22.00;79.50;;;;;;5029773;28;20532;-80
2021/09/26 07:45:00;;;;;;;5.10;4.33;;;22.10;62.40;;;;;;5023252;28;20515;-79
2021/09/26 07:47:29;;;;;;;6.53;5.97;;;22.10;99.90;;;;;;5039882;28;20567;-81
2021/09/26 07:49:57;;;;;;;5.70;4.80;;;22.20;68.20;;;;;;5024034;28;20526;-79
2021/09/26 07:52:26;;;;;;;4.60;4.00;;;22.30;7.50;;;;;;5024114;28;20476;-81
2021/09/26 07:54:56;;;;;;;4.50;4.10;;;22.30;1.00;;;;;;5023859;28;20523;-80
2021/09/26 07:57:24;;;;;;;6.17;4.03;;;22.30;4.30;;;;;;5024228;28;20454;-80
2021/09/26 07:59:53;;;;;;;4.60;3.87;;;22.30;9.60;;;;;;5023434;28;20456;-80
2021/09/26 08:02:24;;;;;;;5.40;4.90;;;22.40;22.50;;;;;;5017479;28;20469;-80
2021/09/26 08:04:52;;;;;;;7.93;5.07;;;22.20;18.50;;;;;;5018725;28;20483;-80
2021/09/26 08:07:21;;;;;;;5.50;5.00;;;22.20;61.00;;;;;;5021607;28;20546;-80
2021/09/26 08:09:49;;;;;;;5.63;4.77;;;22.30;20.50;;;;;;5019898;28;20468;-79
2021/09/26 08:12:17;;;;;;;5.70;4.60;;;22.30;2.50;;;;;;5021013;28;20484;-80
2021/09/26 08:14:45;;;;;;;4.17;3.77;;;22.20;13.70;;;;;;5015162;28;20508;-80
2021/09/26 08:17:13;;;;;;;6.23;4.80;;;22.20;52.70;;;;;;5021361;28;20453;-80
2021/09/26 08:19:47;;;;;;;5.43;3.73;;;22.30;35.10;;;;;;5021301;28;20555;-80
2021/09/26 08:22:16;;;;;;;5.60;4.53;;;22.20;1.00;;;;;;5037770;28;20479;-80
2021/09/26 08:24:44;;;;;;;5.07;3.93;;;22.20;21.00;;;;;;5017839;28;20453;-80
2021/09/26 08:27:13;;;;;;;4.17;3.87;;;22.20;1.00;;;;;;5016276;28;20464;-79
2021/09/26 08:29:41;;;;;;;4.60;3.80;;;22.20;1.00;;;;;;5019005;28;20451;-80
2021/09/26 08:32:09;;;;;;;6.43;4.37;;;22.30;1.00;;;;;;5016117;28;20538;-80
2021/09/26 08:34:38;;;;;;;4.90;3.47;;;22.40;1.00;;;;;;5036144;28;20460;-80
2021/09/26 08:37:07;;;;;;;4.60;4.10;;;22.50;1.00;;;;;;5017994;28;20453;-79
2021/09/26 08:39:36;;;;;;;4.53;3.70;;;22.60;1.00;;;;;;5016344;28;20459;-80
2021/09/26 08:42:04;;;;;;;4.30;3.93;;;22.60;1.00;;;;;;5018324;28;20579;-81
2021/09/26 08:44:32;;;;;;;6.70;4.90;;;22.70;1.00;;;;;;5019944;28;20460;-79
2021/09/26 08:47:01;;;;;;;6.30;4.60;;;22.50;1.00;;;;;;5013922;28;20844;-79
2021/09/26 08:49:30;;;;;;;5.13;4.20;;;22.10;1.00;;;;;;5020618;28;20472;-79
2021/09/26 08:51:58;;;;;;;6.87;4.60;;;21.90;1.00;;;;;;5022904;28;20476;-79
2021/09/26 08:54:28;;;;;;;5.97;4.17;;;21.80;47.00;;;;;;5020438;28;20451;-79
2021/09/26 08:56:56;;;;;;;4.80;4.30;;;21.80;77.00;;;;;;5021760;28;20457;-80
2021/09/26 08:59:25;;;;;;;5.27;4.50;;;21.70;99.90;;;;;;5021119;28;20448;-80
2021/09/26 09:01:54;;;;;;;6.33;4.60;;;21.60;99.90;;;;;;5016270;28;20449;-79
2021/09/26 09:04:35;;;;;;;5.50;5.00;;;21.60;99.90;;;;;;5020454;28;20511;-77
2021/09/26 09:07:05;;;;;;;5.73;4.60;;;21.60;99.90;;;;;;5014333;28;20521;-76
2021/09/26 09:09:48;;;;;;;6.10;4.20;;;21.50;99.90;;;;;;5015324;28;20469;-77
2021/09/26 09:12:17;;;;;;;5.07;4.37;;;21.10;1.00;;;;;;5014682;28;20542;-77
2021/09/26 09:14:54;;;;;;;5.57;5.17;;;21.00;1.00;;;;;;5017446;28;20759;-79
2021/09/26 09:17:26;;;;;;;5.40;4.90;;;21.10;99.90;;;;;;5016370;28;20956;-77
2021/09/26 09:20:18;;;;;;;7.50;6.23;;;21.30;99.90;;;;;;5009520;28;20533;-79
2021/09/26 09:22:51;;;;;;;6.53;5.93;;;21.20;99.90;;;;;;5016079;28;20483;-77
2021/09/26 09:25:38;;;;;;;8.50;7.23;;;21.10;99.90;;;;;;5017058;28;20456;-79
2021/09/26 09:28:09;;;;;;;6.57;5.80;;;20.90;99.90;;;;;;5029121;28;20551;-79
2021/09/26 09:30:41;;;;;;;7.37;5.87;;;21.20;1.00;;;;;;5010655;28;20500;-78
2021/09/26 09:33:10;;;;;;;6.77;6.17;;;20.90;1.00;;;;;;5010274;28;20888;-75
2021/09/26 09:35:45;;;;;;;5.67;5.17;;;20.90;1.00;;;;;;5010783;28;20888;-77
2021/09/26 09:38:16;;;;;;;6.67;5.97;;;21.00;99.90;;;;;;5011894;28;20448;-77
2021/09/26 09:40:50;;;;;;;6.37;5.50;;;20.90;99.90;;;;;;5012435;28;21060;-77
2021/09/26 09:43:18;;;;;;;6.20;5.60;;;20.90;99.90;;;;;;5012614;28;20492;-76
2021/09/26 09:45:52;;;;;;;5.40;4.80;;;20.80;99.90;;;;;;5013207;28;20529;-77
2021/09/26 09:48:24;;;;;;;7.33;6.20;;;20.80;1.00;;;;;;5013127;28;20500;-77
2021/09/26 09:50:56;;;;;;;7.60;6.73;;;20.70;49.90;;;;;;5013391;28;20456;-78
2021/09/26 09:53:34;;;;;;;7.10;6.40;;;20.60;99.90;;;;;;5015832;28;20567;-78
2021/09/26 09:56:13;;;;;;;6.17;5.53;;;20.50;1.00;;;;;;5013052;28;20449;-78
2021/09/26 09:58:44;;;;;;;6.00;5.27;;;20.60;99.90;;;;;;5017352;28;20488;-77
2021/09/26 10:01:13;;;;;;;7.07;5.97;;;20.60;99.90;;;;;;5008965;28;21216;-79
2021/09/26 10:03:48;;;;;;;7.17;5.50;;;20.50;1.00;;;;;;5012626;28;20569;-77
2021/09/26 10:06:22;;;;;;;8.50;6.07;;;20.60;1.00;;;;;;5004168;28;20764;-77
2021/09/26 10:08:51;;;;;;;6.37;5.87;;;20.70;1.00;;;;;;5012104;28;20488;-78
2021/09/26 10:11:27;;;;;;;5.87;5.27;;;20.60;99.90;;;;;;5006694;28;20449;-76
2021/09/26 10:13:55;;;;;;;6.53;5.80;;;20.80;99.90;;;;;;5011948;28;20488;-76
2021/09/26 10:16:24;;;;;;;8.10;6.80;;;20.90;1.00;;;;;;5011312;28;20468;-77
2021/09/26 10:18:54;;;;;;;7.83;5.77;;;20.70;99.90;;;;;;5011732;28;20536;-77
2021/09/26 10:21:22;;;;;;;7.47;6.70;;;20.70;1.00;;;;;;5014521;28;20458;-75
2021/09/26 10:23:52;;;;;;;8.60;6.37;;;20.70;1.00;;;;;;5008002;28;20489;-76
2021/09/26 10:26:24;;;;;;;7.07;6.37;;;20.60;99.90;;;;;;5012497;28;20492;-76
2021/09/26 10:28:56;;;;;;;7.40;6.73;;;20.70;1.00;;;;;;5010025;28;20477;-77
2021/09/26 10:31:27;;;;;;;5.93;5.33;;;20.80;99.90;;;;;;5012457;28;20531;-77
2021/09/26 10:34:00;;;;;;;8.70;6.20;;;20.90;1.00;;;;;;5007486;28;20476;-77
2021/09/26 10:36:29;;;;;;;6.37;5.50;;;20.90;99.90;;;;;;5012268;28;20461;-77
2021/09/26 10:39:00;;;;;;;5.80;4.77;;;20.80;99.90;;;;;;5011906;28;20475;-77
2021/09/26 10:41:30;;;;;;;7.57;6.30;;;20.80;99.90;;;;;;5013137;28;21004;-77
2021/09/26 10:44:23;;;;;;;5.73;5.00;;;20.70;99.90;;;;;;5007939;28;20526;-77
2021/09/26 10:47:06;;;;;;;5.87;5.27;;;20.50;8.70;;;;;;5018846;28;20469;-78
2021/09/26 10:49:38;;;;;;;7.03;4.97;;;20.50;1.00;;;;;;5005967;28;20481;-78
2021/09/26 10:52:23;;;;;;;4.87;4.23;;;20.70;1.00;;;;;;5008921;28;20544;-79
2021/09/26 10:54:52;;;;;;;6.77;6.17;;;20.70;99.90;;;;;;5003915;28;20894;-78
2021/09/26 10:57:26;;;;;;;4.87;4.37;;;20.70;1.00;;;;;;5004446;28;21162;-79
2021/09/26 10:59:58;;;;;;;4.73;4.23;;;20.80;1.00;;;;;;5001695;28;20459;-78
2021/09/26 11:02:47;;;;;;;4.07;3.70;;;21.00;99.90;;;;;;5008248;28;20473;-77
2021/09/26 11:05:39;;;;;;;5.30;4.30;;;20.80;1.00;;;;;;5004477;28;20563;-78
2021/09/26 11:08:14;;;;;;;4.90;4.23;;;20.70;99.90;;;;;;5006155;28;20468;-76
2021/09/26 11:10:51;;;;;;;4.33;3.63;;;20.70;1.00;;;;;;5010290;28;20473;-77
2021/09/26 11:13:28;;;;;;;4.50;3.80;;;20.80;99.90;;;;;;5006780;28;20481;-78
2021/09/26 11:16:14;;;;;;;4.10;3.77;;;20.90;99.90;;;;;;5007976;28;20448;-78
2021/09/26 11:18:54;;;;;;;5.57;3.73;;;21.10;1.00;;;;;;5007427;28;20961;-78
2021/09/26 11:21:47;;;;;;;4.90;4.20;;;21.20;1.00;;;;;;5005434;28;20518;-78
2021/09/26 11:24:27;;;;;;;5.07;4.30;;;21.30;99.90;;;;;;5006835;28;20519;-79
2021/09/26 11:27:23;;;;;;;5.27;4.07;;;21.30;1.00;;;;;;5006491;28;20468;-80
2021/09/26 11:30:15;;;;;;;5.50;4.50;;;21.40;1.00;;;;;;5005739;28;20481;-77
2021/09/26 11:32:55;;;;;;;4.80;4.23;;;21.40;1.00;;;;;;5006211;28;20996;-76
2021/09/26 11:35:29;;;;;;;4.80;4.40;;;21.50;99.90;;;;;;5008341;28;20457;-78
2021/09/26 11:38:02;;;;;;;5.40;4.90;;;21.60;1.00;;;;;;5001815;28;20962;-78
2021/09/26 11:40:53;;;;;;;4.40;3.87;;;21.70;99.90;;;;;;5009363;28;20459;-79
2021/09/26 11:43:24;;;;;;;4.10;3.80;;;21.80;99.90;;;;;;5008192;28;20486;-78
2021/09/26 11:45:55;;;;;;;5.00;4.50;;;21.90;27.00;;;;;;5007085;28;20485;-78
2021/09/26 11:48:33;;;;;;;4.87;4.27;;;21.90;1.00;;;;;;5007369;28;20524;-77
2021/09/26 11:51:09;;;;;;;4.00;3.70;;;22.00;9.90;;;;;;5005720;28;20515;-78
2021/09/26 11:53:38;;;;;;;4.30;3.90;;;21.80;93.30;;;;;;5018016;28;20495;-78
2021/09/26 11:56:19;;;;;;;3.90;3.50;;;21.90;99.90;;;;;;5020458;28;20463;-82
2021/09/26 11:58:52;;;;;;;4.93;4.30;;;21.90;63.90;;;;;;5015771;28;21107;-76
2021/09/26 12:01:28;;;;;;;5.30;3.90;;;22.00;99.90;;;;;;5025903;28;20462;-77
2021/09/26 12:04:20;;;;;;;5.23;4.10;;;22.10;92.30;;;;;;5012137;28;20491;-77
2021/09/26 12:06:50;;;;;;;5.07;3.90;;;22.10;56.10;;;;;;5006157;28;21009;-79
2021/09/26 12:09:38;;;;;;;7.93;5.17;;;22.40;29.80;;;;;;5010262;28;20797;-77
2021/09/26 12:12:10;;;;;;;4.80;4.40;;;22.50;1.00;;;;;;5008480;28;20477;-79
2021/09/26 12:14:40;;;;;;;7.17;4.57;;;22.50;17.00;;;;;;5006462;28;20519;-80
2021/09/26 12:17:10;;;;;;;4.83;3.90;;;22.40;1.00;;;;;;5011382;28;20512;-78
2021/09/26 12:19:41;;;;;;;9.07;4.90;;;22.30;9.20;;;;;;5008672;28;20453;-78
2021/09/26 12:22:11;;;;;;;5.03;4.50;;;22.40;64.50;;;;;;5014558;28;20574;-78
2021/09/26 12:24:46;;;;;;;5.57;5.13;;;22.50;64.90;;;;;;5021371;28;20465;-79
2021/09/26 12:27:20;;;;;;;5.10;4.33;;;22.70;99.90;;;;;;5024732;28;20460;-78
2021/09/26 12:29:55;;;;;;;4.20;3.80;;;22.90;1.00;;;;;;5017083;28;21023;-81
2021/09/26 12:32:26;;;;;;;6.03;4.43;;;23.10;1.00;;;;;;5026766;28;20480;-78
2021/09/26 12:34:56;;;;;;;4.77;4.33;;;23.20;1.00;;;;;;5016298;28;20479;-78
2021/09/26 12:37:27;;;;;;;4.47;4.07;;;23.30;1.00;;;;;;5024376;28;20972;-78
2021/09/26 12:40:00;;;;;;;4.50;4.13;;;23.20;1.00;;;;;;5024070;28;20487;-79
2021/09/26 12:42:32;;;;;;;7.80;5.43;;;23.10;1.00;;;;;;5018466;28;20567;-79
2021/09/26 12:45:14;;;;;;;6.77;5.00;;;23.10;1.00;;;;;;5020176;28;20516;-78
2021/09/26 12:47:43;;;;;;;5.50;5.10;;;23.00;1.00;;;;;;5025965;28;20461;-79
2021/09/26 12:50:15;;;;;;;5.50;4.17;;;23.00;1.00;;;;;;5016636;28;20569;-78
2021/09/26 12:52:45;;;;;;;5.87;4.27;;;23.00;1.00;;;;;;5017559;28;20558;-77
2021/09/26 12:55:21;;;;;;;5.70;4.93;;;22.90;1.00;;;;;;5018508;28;20464;-77
2021/09/26 12:57:51;;;;;;;5.40;4.90;;;22.70;1.00;;;;;;5019473;28;21103;-78
2021/09/26 13:00:22;;;;;;;5.90;4.80;;;22.70;26.40;;;;;;5021009;28;20812;-78
2021/09/26 13:02:53;;;;;;;5.83;5.23;;;22.80;1.00;;;;;;5018961;28;20484;-77
2021/09/26 13:05:30;;;;;;;5.23;4.73;;;22.80;1.00;;;;;;5021719;28;20456;-74
2021/09/26 13:08:05;;;;;;;5.80;4.57;;;22.70;1.00;;;;;;5014147;28;20507;-79
2021/09/26 13:10:37;;;;;;;5.77;5.37;;;22.70;1.00;;;;;;5026361;28;20892;-78
2021/09/26 13:13:16;;;;;;;7.77;5.33;;;22.70;1.00;;;;;;5019371;28;20491;-79